Time;durP1;ratioP1;P1;durP2;ratioP2;P2;SDS_P1;SDS_P2;PMS_P1;PMS_P2;Temp;Humidity;BMP_temperature;BMP_pressure;BME280_temperature;BME280_humidity;BME280_pressure;Samples;Min_cycle;Max_cycle;Signal;HPM_P1;HPM_P2
2023/04/06 00:01:02;;;;;;;12.38;6.65;;;;;;;1.00;68.93;92572.31;5095136;27;20068;-76
2023/04/06 00:03:28;;;;;;;10.18;6.78;;;;;;;0.95;69.04;92573.00;5113380;27;20027;-78
2023/04/06 00:05:54;;;;;;;12.13;6.28;;;;;;;0.94;68.38;92575.78;5126870;27;20031;-77
2023/04/06 00:08:21;;;;;;;10.48;6.00;;;;;;;0.95;67.50;92567.84;5126765;27;20444;-77
2023/04/06 00:10:47;;;;;;;11.82;6.47;;;;;;;0.94;67.64;92566.25;5124951;27;20067;-77
2023/04/06 00:13:12;;;;;;;10.48;6.07;;;;;;;0.90;68.36;92567.72;5128649;27;20115;-77
2023/04/06 00:15:38;;;;;;;12.50;6.38;;;;;;;0.89;68.42;92561.00;5125137;27;20031;-77
2023/04/06 00:18:04;;;;;;;11.30;6.60;;;;;;;0.85;68.05;92559.88;5124155;27;20035;-77
2023/04/06 00:20:30;;;;;;;12.82;6.72;;;;;;;0.84;68.45;92563.47;5125573;27;20485;-77
2023/04/06 00:22:55;;;;;;;12.45;6.50;;;;;;;0.83;69.52;92567.03;5104724;28;20035;-78
2023/04/06 00:25:21;;;;;;;13.23;7.07;;;;;;;0.80;70.00;92563.13;5107816;27;20035;-77
2023/04/06 00:27:46;;;;;;;14.68;7.07;;;;;;;0.77;71.02;92557.63;5124389;27;20125;-77
2023/04/06 00:30:12;;;;;;;15.32;7.05;;;;;;;0.74;71.37;92558.84;5128224;27;20114;-77
2023/04/06 00:32:37;;;;;;;14.23;7.25;;;;;;;0.73;71.16;92551.34;5110692;27;20117;-77
2023/04/06 00:35:04;;;;;;;12.52;7.50;;;;;;;0.71;71.63;92554.16;5104755;27;20489;-78
2023/04/06 00:37:30;;;;;;;12.88;7.30;;;;;;;0.66;72.55;92556.63;5125349;27;20531;-77
2023/04/06 00:39:55;;;;;;;13.38;7.35;;;;;;;0.62;72.55;92556.28;5107725;27;20066;-77
2023/04/06 00:42:25;;;;;;;14.02;7.68;;;;;;;0.57;72.81;92555.38;5092943;27;20038;-76
2023/04/06 00:44:56;;;;;;;12.93;6.93;;;;;;;0.45;72.83;92545.06;5126935;27;20092;-77
2023/04/06 00:47:24;;;;;;;12.05;7.38;;;;;;;0.49;72.50;92553.91;5107942;27;20091;-78
2023/04/06 00:49:50;;;;;;;13.55;6.75;;;;;;;0.46;72.53;92551.78;5122437;27;20033;-77
2023/04/06 00:52:16;;;;;;;11.82;7.13;;;;;;;0.45;73.40;92557.16;5127378;27;20134;-78
2023/04/06 00:54:45;;;;;;;10.98;6.38;;;;;;;0.43;72.81;92561.72;5105782;27;20062;-77
2023/04/06 00:57:12;;;;;;;12.00;6.60;;;;;;;0.41;72.68;92560.19;5089468;27;20042;-77
2023/04/06 00:59:39;;;;;;;13.13;7.53;;;;;;;0.41;72.93;92564.56;5123574;27;20108;-78
2023/04/06 01:02:08;;;;;;;14.18;6.80;;;;;;;0.37;72.58;92563.41;5108816;27;20164;-77
2023/04/06 01:04:41;;;;;;;11.07;6.80;;;;;;;0.30;72.78;92557.59;5107178;27;20027;-78
2023/04/06 01:07:11;;;;;;;11.88;6.82;;;;;;;0.24;73.32;92559.25;5089410;27;20038;-77
2023/04/06 01:09:45;;;;;;;11.85;7.35;;;;;;;0.19;72.99;92557.34;5106594;27;20078;-77
2023/04/06 01:12:18;;;;;;;13.93;6.90;;;;;;;0.16;73.53;92560.34;5093056;27;20092;-78
2023/04/06 01:14:44;;;;;;;13.23;7.20;;;;;;;0.14;74.17;92559.00;5105727;28;20188;-77
2023/04/06 01:17:09;;;;;;;11.60;7.43;;;;;;;0.10;74.77;92557.88;5087516;27;20122;-77
2023/04/06 01:19:36;;;;;;;15.95;7.45;;;;;;;0.13;74.90;92555.63;5105677;27;20042;-77
2023/04/06 01:22:02;;;;;;;13.70;7.55;;;;;;;0.09;74.87;92556.28;5106579;28;20043;-78
2023/04/06 01:24:30;;;;;;;14.50;7.93;;;;;;;0.04;75.67;92553.59;5106274;27;20390;-77
2023/04/06 01:27:14;;;;;;;13.73;7.88;;;;;;;0.00;76.31;92558.41;5107370;27;20047;-77
2023/04/06 01:29:54;;;;;;;14.27;8.18;;;;;;;-0.07;76.45;92552.56;5103722;27;20123;-77
2023/04/06 01:32:33;;;;;;;12.38;7.35;;;;;;;-0.11;76.64;92544.50;5091624;27;20035;-77
2023/04/06 01:34:59;;;;;;;11.35;7.25;;;;;;;-0.09;76.59;92546.84;5072273;27;20039;-77
2023/04/06 01:37:25;;;;;;;13.88;7.63;;;;;;;-0.07;76.09;92550.78;5089514;27;20160;-77
2023/04/06 01:39:53;;;;;;;14.05;8.05;;;;;;;-0.06;76.79;92554.91;5105631;27;20067;-78
2023/04/06 01:42:32;;;;;;;13.88;8.10;;;;;;;-0.09;76.71;92552.00;5105091;27;20031;-77
2023/04/06 01:44:58;;;;;;;13.07;8.07;;;;;;;-0.13;77.42;92548.31;5105194;27;20044;-77
2023/04/06 01:47:23;;;;;;;14.40;8.60;;;;;;;-0.16;77.29;92541.00;5104635;27;20168;-79
2023/04/06 01:49:49;;;;;;;18.83;8.77;;;;;;;-0.16;77.39;92543.56;5086859;27;20508;-77
2023/04/06 01:52:15;;;;;;;15.25;8.43;;;;;;;-0.19;77.59;92544.81;5091214;28;20062;-77
2023/04/06 01:54:46;;;;;;;13.32;7.97;;;;;;;-0.21;77.44;92550.16;5105996;27;20393;-77
2023/04/06 01:57:20;;;;;;;11.85;7.30;;;;;;;-0.25;78.10;92546.47;5106220;27;20031;-77
2023/04/06 01:59:51;;;;;;;14.98;8.15;;;;;;;-0.28;78.21;92541.75;5087726;27;20039;-77
2023/04/06 02:02:23;;;;;;;13.77;7.13;;;;;;;-0.26;78.40;92549.25;5087255;27;20043;-77
2023/04/06 02:04:58;;;;;;;13.57;7.00;;;;;;;-0.30;78.23;92543.75;5103289;27;20040;-76
2023/04/06 02:07:24;;;;;;;13.02;7.95;;;;;;;-0.33;78.83;92548.56;5103019;27;20126;-75
2023/04/06 02:09:55;;;;;;;13.68;7.45;;;;;;;-0.34;78.63;92550.34;5102839;27;20126;-76
2023/04/06 02:12:24;;;;;;;9.52;6.28;;;;;;;-0.35;78.79;92545.41;5104172;27;20035;-77
2023/04/06 02:14:50;;;;;;;16.27;7.20;;;;;;;-0.40;77.75;92545.31;5103255;27;20486;-76
2023/04/06 02:17:16;;;;;;;12.98;6.88;;;;;;;-0.39;78.22;92549.44;5086423;28;20512;-76
2023/04/06 02:19:41;;;;;;;13.32;7.07;;;;;;;-0.39;77.71;92544.28;5088575;27;20035;-76
2023/04/06 02:22:07;;;;;;;11.40;6.25;;;;;;;-0.40;77.74;92547.88;5093736;28;20039;-76
2023/04/06 02:24:32;;;;;;;12.98;7.93;;;;;;;-0.45;78.25;92548.50;5087953;28;20039;-77
2023/04/06 02:26:58;;;;;;;16.67;7.47;;;;;;;-0.46;78.38;92549.50;5103836;27;20344;-77
2023/04/06 02:29:24;;;;;;;10.52;6.55;;;;;;;-0.48;78.38;92546.38;5123116;27;20053;-76
2023/04/06 02:31:50;;;;;;;14.60;7.43;;;;;;;-0.50;78.95;92553.50;5103517;28;20045;-76
2023/04/06 02:34:17;;;;;;;15.32;7.72;;;;;;;-0.52;79.75;92553.75;5105149;28;20027;-76
2023/04/06 02:36:47;;;;;;;18.00;8.52;;;;;;;-0.55;80.19;92543.09;5104504;27;20046;-77
2023/04/06 02:39:13;;;;;;;13.02;7.20;;;;;;;-0.56;80.06;92544.06;5101562;28;20043;-77
2023/04/06 02:41:39;;;;;;;13.43;8.13;;;;;;;-0.58;79.34;92539.19;5101339;28;20031;-77
2023/04/06 02:44:08;;;;;;;17.27;8.43;;;;;;;-0.58;81.07;92543.53;5102437;28;20118;-77
2023/04/06 02:46:38;;;;;;;20.08;8.35;;;;;;;-0.61;81.21;92546.53;5107969;28;20087;-77
2023/04/06 02:49:04;;;;;;;15.07;8.75;;;;;;;-0.64;80.30;92543.38;5085932;28;20039;-77
2023/04/06 02:51:32;;;;;;;14.80;8.32;;;;;;;-0.63;80.78;92549.34;5103448;28;20046;-76
2023/04/06 02:54:09;;;;;;;15.77;8.68;;;;;;;-0.65;80.71;92552.09;5104412;28;20583;-76
2023/04/06 02:56:35;;;;;;;14.02;8.50;;;;;;;-0.64;81.60;92550.31;5102350;28;20126;-77
2023/04/06 02:59:00;;;;;;;12.35;7.65;;;;;;;-0.68;81.42;92542.25;5089211;28;20059;-76
2023/04/06 03:01:29;;;;;;;19.67;8.82;;;;;;;-0.68;81.82;92549.94;5103787;28;20116;-77
2023/04/06 03:03:58;;;;;;;18.42;8.13;;;;;;;-0.69;81.54;92543.25;5088308;28;20131;-76
2023/04/06 03:06:26;;;;;;;12.85;8.20;;;;;;;-0.72;81.70;92546.25;5103678;28;20039;-76
2023/04/06 03:08:56;;;;;;;16.73;8.60;;;;;;;-0.75;81.73;92546.69;5094349;28;20063;-76
2023/04/06 03:11:22;;;;;;;21.92;10.65;;;;;;;-0.81;82.10;92536.47;5101438;28;20496;-76
2023/04/06 03:13:50;;;;;;;20.23;10.20;;;;;;;-0.79;82.43;92550.66;5088818;27;20042;-76
2023/04/06 03:16:16;;;;;;;20.75;9.15;;;;;;;-0.80;83.54;92545.75;5108593;27;20126;-76
2023/04/06 03:18:44;;;;;;;11.98;8.05;;;;;;;-0.82;82.96;92545.97;5109268;27;20036;-75
2023/04/06 03:21:11;;;;;;;16.13;7.88;;;;;;;-0.83;83.78;92546.97;5105532;27;20050;-77
2023/04/06 03:23:49;;;;;;;17.77;7.97;;;;;;;-0.83;83.33;92544.41;5123609;27;20043;-76
2023/04/06 03:26:15;;;;;;;15.98;7.80;;;;;;;-0.84;83.70;92540.25;5103034;27;20111;-77
2023/04/06 03:28:40;;;;;;;17.02;8.25;;;;;;;-0.83;83.26;92544.41;5128061;27;20034;-77
2023/04/06 03:31:06;;;;;;;16.55;7.90;;;;;;;-0.82;83.64;92538.25;5106321;27;20134;-76
2023/04/06 03:33:40;;;;;;;16.70;7.75;;;;;;;-0.85;83.49;92536.13;5125525;27;20481;-77
2023/04/06 03:36:09;;;;;;;13.90;7.63;;;;;;;-0.86;83.19;92545.63;5090493;27;20170;-77
2023/04/06 03:38:39;;;;;;;12.52;7.65;;;;;;;-0.85;83.98;92541.28;5109604;27;20035;-76
2023/04/06 03:41:09;;;;;;;12.13;7.68;;;;;;;-0.88;84.20;92542.50;5106727;27;20382;-76
2023/04/06 03:43:35;;;;;;;15.95;7.38;;;;;;;-0.91;83.66;92539.53;5106534;27;20042;-77
2023/04/06 03:46:01;;;;;;;14.60;7.90;;;;;;;-0.90;83.52;92543.69;5123537;27;20024;-76
2023/04/06 03:48:27;;;;;;;17.63;7.65;;;;;;;-0.92;83.50;92550.84;5108445;27;20043;-76
2023/04/06 03:50:52;;;;;;;16.05;7.95;;;;;;;-0.96;83.16;92542.75;5125873;27;20038;-76
2023/04/06 03:53:18;;;;;;;18.13;7.90;;;;;;;-0.97;83.07;92545.53;5124675;27;20056;-76
2023/04/06 03:55:44;;;;;;;15.27;7.97;;;;;;;-0.99;84.13;92543.19;5106735;27;20035;-76
2023/04/06 03:58:09;;;;;;;14.98;8.52;;;;;;;-0.96;84.06;92547.91;5123156;27;20041;-76
2023/04/06 04:00:35;;;;;;;14.45;8.52;;;;;;;-0.98;84.75;92554.25;5110178;27;20093;-76
2023/04/06 04:03:02;;;;;;;15.65;8.70;;;;;;;-1.00;85.12;92553.69;5105153;27;20457;-77
2023/04/06 04:05:27;;;;;;;14.35;7.75;;;;;;;-1.02;85.17;92555.69;5108633;27;20308;-77
2023/04/06 04:07:54;;;;;;;13.48;8.40;;;;;;;-1.01;84.24;92554.66;5104796;27;20031;-76
2023/04/06 04:10:23;;;;;;;16.42;8.73;;;;;;;-1.02;85.05;92558.25;5107223;27;20035;-77
2023/04/06 04:12:49;;;;;;;13.80;8.63;;;;;;;-1.03;84.88;92564.41;5125580;27;20630;-77
2023/04/06 04:15:14;;;;;;;14.23;8.20;;;;;;;-1.06;84.59;92555.31;5104942;27;20028;-77
2023/04/06 04:17:40;;;;;;;14.23;8.07;;;;;;;-1.07;85.48;92567.38;5105126;27;20043;-77
2023/04/06 04:20:07;;;;;;;14.90;8.75;;;;;;;-1.10;84.51;92567.81;5088714;27;20113;-77
2023/04/06 04:22:33;;;;;;;15.70;8.48;;;;;;;-1.09;84.49;92569.38;5090910;27;20046;-77
2023/04/06 04:24:59;;;;;;;15.38;9.25;;;;;;;-1.11;85.09;92562.88;5105884;27;20039;-77
2023/04/06 04:27:25;;;;;;;17.02;8.93;;;;;;;-1.11;84.67;92561.09;5087990;27;20408;-77
2023/04/06 04:29:51;;;;;;;13.38;8.68;;;;;;;-1.12;85.64;92561.31;5096506;27;20035;-77
2023/04/06 04:32:17;;;;;;;14.57;8.05;;;;;;;-1.16;85.81;92566.09;5088976;27;20413;-77
2023/04/06 04:34:44;;;;;;;13.55;8.48;;;;;;;-1.14;85.56;92568.44;5088824;27;20072;-77
2023/04/06 04:37:17;;;;;;;17.65;8.77;;;;;;;-1.17;86.07;92564.53;5089242;27;20479;-77
2023/04/06 04:39:48;;;;;;;15.35;8.35;;;;;;;-1.19;86.42;92561.38;5109597;27;20041;-77
2023/04/06 04:42:15;;;;;;;14.73;8.90;;;;;;;-1.17;86.40;92567.09;5105241;27;20054;-77
2023/04/06 04:44:46;;;;;;;24.15;8.88;;;;;;;-1.18;86.06;92572.44;5105455;27;20032;-77
2023/04/06 04:47:12;;;;;;;16.65;8.32;;;;;;;-1.19;86.44;92569.09;5088677;27;20043;-77
2023/04/06 04:49:44;;;;;;;21.75;8.48;;;;;;;-1.18;85.97;92575.00;5110054;27;20122;-79
2023/04/06 04:52:14;;;;;;;11.52;7.68;;;;;;;-1.19;86.07;92569.09;5105594;27;20543;-78
2023/04/06 04:54:54;;;;;;;16.30;7.97;;;;;;;-1.14;84.65;92563.31;5091605;27;20047;-77
2023/04/06 04:57:25;;;;;;;13.88;7.65;;;;;;;-1.10;84.86;92574.75;5111180;27;20038;-80
2023/04/06 04:59:51;;;;;;;13.73;7.53;;;;;;;-1.12;84.30;92562.09;5111549;27;20043;-76
2023/04/06 05:02:18;;;;;;;13.65;7.22;;;;;;;-1.07;84.25;92567.38;5092075;27;20084;-78
2023/04/06 05:05:05;;;;;;;13.23;7.43;;;;;;;-1.01;83.42;92565.75;5097190;27;20031;-80
2023/04/06 05:07:30;;;;;;;14.13;7.38;;;;;;;-0.98;83.11;92567.09;5112619;27;20050;-75
2023/04/06 05:09:58;;;;;;;11.70;7.03;;;;;;;-0.94;82.33;92579.31;5128706;27;20110;-77
2023/04/06 05:12:27;;;;;;;10.80;6.70;;;;;;;-0.92;82.47;92568.84;5133752;27;20039;-79
2023/04/06 05:15:02;;;;;;;10.35;6.30;;;;;;;-0.85;81.48;92577.25;5114002;27;20434;-76
2023/04/06 05:17:28;;;;;;;13.52;7.07;;;;;;;-0.81;80.88;92582.72;5075412;27;20039;-76
2023/04/06 05:19:54;;;;;;;15.82;6.93;;;;;;;-0.79;81.58;92586.66;5109433;27;20436;-77
2023/04/06 05:22:23;;;;;;;12.10;6.57;;;;;;;-0.74;80.34;92584.25;5091779;27;20142;-78
2023/04/06 05:24:57;;;;;;;13.00;6.43;;;;;;;-0.70;80.61;92580.25;5109169;27;20067;-78
2023/04/06 05:27:23;;;;;;;12.10;6.95;;;;;;;-0.63;80.62;92580.97;5113042;27;20789;-78
2023/04/06 05:29:49;;;;;;;10.57;6.57;;;;;;;-0.54;79.75;92585.78;5112292;27;20027;-78
2023/04/06 05:32:16;;;;;;;10.48;6.85;;;;;;;-0.46;79.57;92581.16;5088312;27;20609;-79
2023/04/06 05:34:42;;;;;;;15.57;6.80;;;;;;;-0.35;79.66;92581.44;5099519;27;20023;-78
2023/04/06 05:37:07;;;;;;;12.02;7.05;;;;;;;-0.25;79.09;92582.50;5111717;27;20389;-76
2023/04/06 05:39:34;;;;;;;11.80;6.85;;;;;;;-0.11;78.47;92584.88;5116036;27;20138;-81
2023/04/06 05:42:06;;;;;;;11.98;6.50;;;;;;;0.01;78.26;92580.56;5112810;27;20121;-78
2023/04/06 05:44:48;;;;;;;11.15;6.18;;;;;;;0.18;77.66;92581.53;5113049;27;20282;-78
2023/04/06 05:47:15;;;;;;;11.93;7.22;;;;;;;0.34;77.05;92584.47;5112285;27;20046;-79
2023/04/06 05:49:42;;;;;;;14.65;6.68;;;;;;;0.47;75.50;92579.09;5114031;27;20031;-79
2023/04/06 05:52:13;;;;;;;12.63;6.95;;;;;;;0.67;75.27;92585.75;5081872;27;20047;-78
2023/04/06 05:54:43;;;;;;;15.13;7.30;;;;;;;0.82;74.91;92586.09;5108372;28;20044;-77
2023/04/06 05:57:08;;;;;;;10.43;6.85;;;;;;;1.03;74.03;92587.31;5112677;28;20033;-77
2023/04/06 05:59:34;;;;;;;11.27;6.28;;;;;;;1.22;73.18;92600.88;5089018;28;20036;-81
2023/04/06 06:02:01;;;;;;;17.45;7.55;;;;;;;1.41;72.52;92598.94;5088979;28;20402;-78
2023/04/06 06:04:28;;;;;;;11.85;7.28;;;;;;;1.62;71.98;92594.97;5107868;28;20150;-80
2023/04/06 06:06:54;;;;;;;12.25;6.90;;;;;;;1.96;70.88;92598.47;5109642;28;20039;-78
2023/04/06 06:09:26;;;;;;;14.80;7.80;;;;;;;2.98;64.68;92586.44;5088742;28;20095;-80
2023/04/06 06:12:02;;;;;;;10.45;6.03;;;;;;;4.54;58.67;92591.34;5093142;28;20036;-78
2023/04/06 06:14:29;;;;;;;11.05;7.20;;;;;;;5.76;55.98;92583.56;5103783;28;20127;-78
2023/04/06 06:16:54;;;;;;;13.13;7.28;;;;;;;6.60;51.99;92586.19;5101258;28;20059;-77
2023/04/06 06:19:21;;;;;;;11.40;7.32;;;;;;;7.27;50.88;92587.75;5106041;28;20051;-76
2023/04/06 06:21:47;;;;;;;14.45;6.95;;;;;;;8.13;51.33;92587.75;5084617;28;20535;-78
2023/04/06 06:24:14;;;;;;;15.32;7.47;;;;;;;8.95;49.20;92592.50;5105217;28;20035;-78
2023/04/06 06:26:39;;;;;;;14.68;7.90;;;;;;;9.35;46.80;92586.16;5103719;28;20032;-79
2023/04/06 06:29:06;;;;;;;19.88;7.78;;;;;;;9.82;45.43;92590.91;5108248;28;20043;-79
2023/04/06 06:31:35;;;;;;;13.55;8.23;;;;;;;10.35;42.99;92590.84;5103289;28;20035;-78
2023/04/06 06:34:01;;;;;;;17.23;8.93;;;;;;;10.84;42.64;92579.94;5106091;28;20035;-79
2023/04/06 06:36:30;;;;;;;12.77;8.18;;;;;;;11.37;41.53;92578.88;5103649;28;20044;-79
2023/04/06 06:38:56;;;;;;;10.25;7.88;;;;;;;11.68;41.09;92573.06;5086046;28;20141;-79
2023/04/06 06:41:22;;;;;;;14.63;8.40;;;;;;;12.70;39.98;92568.44;5103050;28;20047;-78
2023/04/06 06:43:48;;;;;;;14.98;8.40;;;;;;;12.55;38.42;92574.03;5097535;28;20055;-78
2023/04/06 06:46:14;;;;;;;16.02;8.57;;;;;;;12.87;37.11;92569.66;5106918;28;20079;-78
2023/04/06 06:48:40;;;;;;;10.05;7.30;;;;;;;12.67;37.48;92569.00;5105832;28;20042;-77
2023/04/06 06:51:06;;;;;;;14.82;8.85;;;;;;;12.34;38.14;92568.44;5108289;28;20031;-78
2023/04/06 06:53:31;;;;;;;13.23;8.50;;;;;;;12.08;38.07;92570.78;5098839;28;20090;-78
2023/04/06 06:55:57;;;;;;;11.25;8.43;;;;;;;12.58;37.70;92565.53;5083530;28;20104;-78
2023/04/06 06:58:23;;;;;;;12.77;8.50;;;;;;;12.62;37.89;92573.63;5067370;28;20040;-79
2023/04/06 07:00:49;;;;;;;13.57;9.23;;;;;;;11.85;37.47;92577.75;5070748;28;20032;-79
2023/04/06 07:03:15;;;;;;;12.55;8.30;;;;;;;11.56;39.07;92580.66;5070215;28;20546;-78
2023/04/06 07:05:52;;;;;;;12.65;7.90;;;;;;;11.21;39.50;92578.34;5085324;28;20037;-78
2023/04/06 07:08:23;;;;;;;19.05;9.88;;;;;;;10.67;42.53;92577.03;5081199;28;20024;-78
2023/04/06 07:10:52;;;;;;;19.58;9.93;;;;;;;10.32;40.95;92580.94;5084318;28;20085;-78
2023/04/06 07:13:22;;;;;;;17.52;9.90;;;;;;;9.36;43.92;92585.09;5081526;28;20059;-78
2023/04/06 07:15:49;;;;;;;15.70;8.38;;;;;;;9.28;44.10;92580.47;5082972;28;20047;-78
2023/04/06 07:18:16;;;;;;;11.77;7.75;;;;;;;9.09;43.70;92576.97;5086199;28;20046;-77
2023/04/06 07:20:42;;;;;;;12.45;7.32;;;;;;;8.66;45.27;92580.16;5080804;28;20430;-78
2023/04/06 07:23:07;;;;;;;13.85;8.77;;;;;;;8.33;45.46;92576.41;5081462;28;20040;-77
2023/04/06 07:25:33;;;;;;;14.88;8.73;;;;;;;8.59;46.16;92576.31;5084165;28;20039;-77
2023/04/06 07:27:58;;;;;;;19.23;10.02;;;;;;;8.33;47.18;92586.84;5081640;28;20029;-77
2023/04/06 07:30:28;;;;;;;16.48;9.25;;;;;;;8.10;47.78;92577.84;5082369;28;20050;-78
2023/04/06 07:32:55;;;;;;;18.48;8.88;;;;;;;7.94;47.73;92592.75;5069324;28;20039;-77
2023/04/06 07:35:26;;;;;;;19.58;9.40;;;;;;;7.77;47.66;92579.28;5090925;28;20016;-78
2023/04/06 07:37:53;;;;;;;13.20;8.13;;;;;;;7.72;47.58;92586.06;5066195;28;20405;-77
2023/04/06 07:40:19;;;;;;;15.70;8.90;;;;;;;7.60;47.76;92580.38;5083594;28;20035;-76
2023/04/06 07:42:47;;;;;;;14.43;5.70;;;;;;;7.92;47.32;92587.03;5100100;28;20418;-77
2023/04/06 07:45:12;;;;;;;14.35;8.23;;;;;;;8.01;45.81;92582.81;5082103;28;20157;-76
2023/04/06 07:47:38;;;;;;;12.38;6.70;;;;;;;7.43;47.54;92582.47;5079987;28;20085;-77
2023/04/06 07:50:05;;;;;;;15.63;9.40;;;;;;;7.41;48.68;92582.78;5080297;28;20047;-78
2023/04/06 07:52:34;;;;;;;16.30;9.70;;;;;;;6.92;50.13;92585.94;5083268;28;20147;-77
2023/04/06 07:55:00;;;;;;;17.45;9.23;;;;;;;6.81;50.72;92584.38;5085831;28;20055;-77
2023/04/06 07:57:25;;;;;;;15.68;9.35;;;;;;;7.15;50.65;92595.03;5104037;28;20048;-76
2023/04/06 07:59:51;;;;;;;13.75;7.40;;;;;;;7.23;49.70;92588.53;5101129;28;20027;-77
2023/04/06 08:02:17;;;;;;;16.25;9.77;;;;;;;7.08;50.58;92589.31;5103655;28;20040;-76
2023/04/06 08:04:43;;;;;;;16.90;8.98;;;;;;;6.75;51.23;92586.19;5104369;28;20043;-78
2023/04/06 08:07:09;;;;;;;14.43;8.57;;;;;;;6.60;51.49;92583.59;5103444;28;20472;-77
2023/04/06 08:09:35;;;;;;;8.90;5.43;;;;;;;6.72;52.42;92591.13;5106323;28;20133;-78
2023/04/06 08:12:00;;;;;;;20.40;9.88;;;;;;;6.99;52.08;92583.84;5106801;28;20047;-77
2023/04/06 08:14:26;;;;;;;18.23;10.02;;;;;;;7.15;52.56;92576.81;5101206;28;20058;-78
2023/04/06 08:16:51;;;;;;;15.98;7.70;;;;;;;7.70;48.32;92579.53;5100598;28;20031;-76
2023/04/06 08:19:18;;;;;;;15.23;8.05;;;;;;;7.83;49.37;92578.97;5106810;28;20600;-79
2023/04/06 08:21:45;;;;;;;12.20;6.53;;;;;;;7.52;49.00;92578.31;5104771;28;20036;-78
2023/04/06 08:24:12;;;;;;;14.30;7.07;;;;;;;7.48;49.54;92582.50;5103725;28;20032;-78
2023/04/06 08:26:37;;;;;;;10.85;6.65;;;;;;;7.16;48.38;92580.19;5102388;28;20482;-77
2023/04/06 08:29:04;;;;;;;14.02;7.32;;;;;;;7.53;49.70;92574.66;5108507;28;20042;-77
2023/04/06 08:31:30;;;;;;;7.60;3.90;;;;;;;7.60;47.75;92575.16;5105486;28;20093;-77
2023/04/06 08:33:56;;;;;;;9.13;5.65;;;;;;;7.62;47.64;92577.50;5104416;28;20027;-78
2023/04/06 08:36:22;;;;;;;8.57;5.20;;;;;;;7.39;47.82;92574.44;5105118;28;20494;-78
2023/04/06 08:38:49;;;;;;;12.35;8.00;;;;;;;7.53;48.50;92574.66;5105435;28;20412;-78
2023/04/06 08:41:19;;;;;;;14.93;8.38;;;;;;;7.54;46.22;92576.22;5105621;28;20036;-77
2023/04/06 08:43:48;;;;;;;8.13;4.75;;;;;;;7.57;47.52;92580.91;5107138;28;20109;-78
2023/04/06 08:46:14;;;;;;;15.18;8.35;;;;;;;7.49;47.39;92571.03;5103852;28;20042;-78
2023/04/06 08:48:42;;;;;;;15.20;9.02;;;;;;;7.47;48.17;92571.28;5105771;28;20028;-78
2023/04/06 08:51:10;;;;;;;14.05;7.97;;;;;;;7.84;48.09;92569.38;5108228;27;20397;-78
2023/04/06 08:53:36;;;;;;;12.30;5.85;;;;;;;8.22;46.80;92574.91;5109537;28;20105;-78
2023/04/06 08:56:03;;;;;;;10.40;7.22;;;;;;;8.10;44.27;92565.56;5107599;28;20036;-78
2023/04/06 08:58:34;;;;;;;15.15;8.18;;;;;;;7.84;45.24;92564.91;5105071;28;20054;-77
2023/04/06 09:01:02;;;;;;;14.02;7.60;;;;;;;7.78;45.95;92567.81;5108648;28;20037;-78
2023/04/06 09:03:29;;;;;;;12.65;6.88;;;;;;;7.98;45.14;92562.50;5107779;28;20032;-78
2023/04/06 09:05:55;;;;;;;13.27;7.53;;;;;;;8.13;45.86;92561.69;5105648;28;20532;-78
2023/04/06 09:08:20;;;;;;;13.35;4.70;;;;;;;8.32;43.36;92564.44;5103917;28;20031;-78
2023/04/06 09:10:47;;;;;;;12.48;7.28;;;;;;;8.09;45.55;92566.63;5105949;28;20040;-78
2023/04/06 09:13:13;;;;;;;14.32;8.00;;;;;;;8.01;44.00;92561.97;5107294;28;20036;-76
2023/04/06 09:15:39;;;;;;;10.85;6.93;;;;;;;7.91;45.45;92554.97;5105217;28;20043;-78
2023/04/06 09:18:05;;;;;;;8.52;5.15;;;;;;;8.17;43.44;92559.28;5104566;28;20028;-78
2023/04/06 09:20:31;;;;;;;11.93;7.70;;;;;;;8.49;44.49;92557.06;5104364;28;20043;-78
2023/04/06 09:22:56;;;;;;;12.68;7.50;;;;;;;8.83;43.62;92558.91;5105595;28;20023;-78
2023/04/06 09:25:24;;;;;;;15.48;7.88;;;;;;;8.52;44.34;92551.28;5104822;28;20040;-78
2023/04/06 09:28:00;;;;;;;12.43;6.57;;;;;;;8.84;43.30;92551.84;5106369;28;20484;-78
2023/04/06 09:30:26;;;;;;;11.00;7.18;;;;;;;8.70;42.58;92564.75;5104480;28;20047;-79
2023/04/06 09:32:55;;;;;;;16.38;6.82;;;;;;;8.35;44.37;92553.44;5104662;28;20030;-78
2023/04/06 09:35:22;;;;;;;16.17;7.53;;;;;;;8.24;44.47;92552.75;5108480;28;20031;-77
2023/04/06 09:37:49;;;;;;;14.82;7.95;;;;;;;8.83;44.28;92556.31;5105541;28;20410;-78
2023/04/06 09:40:17;;;;;;;9.25;5.78;;;;;;;8.57;41.75;92557.53;5089052;28;20038;-78
2023/04/06 09:42:46;;;;;;;11.88;7.55;;;;;;;8.88;44.35;92551.03;5103964;28;20136;-78
2023/04/06 09:45:12;;;;;;;11.10;5.72;;;;;;;9.02;41.49;92553.00;5103567;28;20504;-78
2023/04/06 09:47:40;;;;;;;11.73;5.00;;;;;;;9.22;42.10;92544.22;5103613;28;20032;-77
2023/04/06 09:50:08;;;;;;;8.73;5.80;;;;;;;9.35;41.90;92544.34;5105813;28;20515;-77
2023/04/06 09:52:40;;;;;;;13.93;8.27;;;;;;;9.18;41.54;92536.16;5107748;28;20056;-82
2023/04/06 09:55:07;;;;;;;12.20;6.95;;;;;;;9.07;42.02;92547.75;5108170;28;20421;-78
2023/04/06 09:57:50;;;;;;;13.90;7.78;;;;;;;8.62;43.05;92539.22;5106713;28;20027;-78
2023/04/06 10:00:20;;;;;;;12.25;7.20;;;;;;;8.69;42.68;92542.28;5125145;27;20442;-78
2023/04/06 10:02:55;;;;;;;16.40;8.70;;;;;;;8.71;43.58;92532.38;5107888;28;20031;-80
2023/04/06 10:05:41;;;;;;;13.55;8.27;;;;;;;8.96;42.61;92542.63;5103292;28;20036;-77
2023/04/06 10:08:10;;;;;;;15.98;8.82;;;;;;;8.93;40.53;92529.31;5109963;28;20039;-78
2023/04/06 10:10:36;;;;;;;13.25;7.38;;;;;;;8.97;41.41;92532.94;5107101;28;20030;-77
2023/04/06 10:13:03;;;;;;;11.23;5.68;;;;;;;9.04;41.50;92537.84;5105411;28;20075;-79
2023/04/06 10:15:30;;;;;;;9.27;5.03;;;;;;;8.85;41.05;92535.94;5107297;28;20769;-79
2023/04/06 10:18:00;;;;;;;10.43;6.03;;;;;;;9.21;40.67;92526.97;5106597;28;20103;-77
2023/04/06 10:20:35;;;;;;;12.35;7.80;;;;;;;9.52;40.09;92522.22;5108393;28;20036;-79
2023/04/06 10:23:19;;;;;;;12.02;5.72;;;;;;;9.53;40.31;92521.97;5107368;28;20101;-78
2023/04/06 10:25:56;;;;;;;9.68;5.88;;;;;;;9.44;39.18;92528.84;5109554;28;20043;-77
2023/04/06 10:28:23;;;;;;;11.38;7.30;;;;;;;9.78;40.22;92518.28;5106126;28;20046;-79
2023/04/06 10:30:48;;;;;;;14.48;8.30;;;;;;;9.74;39.75;92516.50;5103793;28;20043;-78
2023/04/06 10:33:14;;;;;;;10.52;6.68;;;;;;;9.46;39.62;92513.69;5105819;28;20082;-80
2023/04/06 10:35:40;;;;;;;11.02;6.40;;;;;;;9.21;39.29;92521.75;5103642;28;20107;-77
2023/04/06 10:38:07;;;;;;;13.13;7.07;;;;;;;9.11;39.40;92512.97;5107054;28;20082;-79
2023/04/06 10:40:36;;;;;;;14.93;6.57;;;;;;;9.33;39.08;92522.94;5110148;28;20035;-77
2023/04/06 10:43:10;;;;;;;9.32;6.20;;;;;;;9.38;39.86;92506.44;5105989;28;20058;-79
2023/04/06 10:45:37;;;;;;;14.00;8.02;;;;;;;9.67;38.39;92514.22;5089842;28;20039;-80
2023/04/06 10:48:18;;;;;;;11.30;6.35;;;;;;;9.86;38.81;92516.09;5104322;28;20446;-78
2023/04/06 10:50:49;;;;;;;10.65;6.28;;;;;;;9.48;38.98;92500.31;5104675;28;20047;-80
2023/04/06 10:53:25;;;;;;;14.77;7.60;;;;;;;9.55;38.28;92508.63;5088686;28;20447;-78
2023/04/06 10:55:53;;;;;;;12.07;6.85;;;;;;;9.55;37.82;92506.00;5067311;28;20436;-78
2023/04/06 10:58:19;;;;;;;11.63;5.80;;;;;;;9.83;39.61;92506.19;5086015;28;20035;-80
2023/04/06 11:00:45;;;;;;;7.72;4.30;;;;;;;10.01;37.62;92513.28;5087340;28;20122;-79
2023/04/06 11:03:11;;;;;;;8.43;5.88;;;;;;;9.84;37.13;92503.31;5089216;28;20092;-80
2023/04/06 11:05:37;;;;;;;14.50;7.78;;;;;;;10.02;38.11;92504.41;5052475;28;20071;-80
2023/04/06 11:08:02;;;;;;;9.13;5.47;;;;;;;9.94;35.96;92505.00;5087098;28;20268;-79
2023/04/06 11:10:29;;;;;;;10.80;6.43;;;;;;;10.29;35.01;92498.56;5087043;28;20475;-80
2023/04/06 11:12:56;;;;;;;15.57;5.88;;;;;;;10.30;37.85;92496.72;5087061;28;20028;-79
2023/04/06 11:15:21;;;;;;;11.30;6.57;;;;;;;10.68;35.66;92481.75;5082791;28;20066;-79
2023/04/06 11:17:48;;;;;;;8.88;5.20;;;;;;;10.57;34.89;92473.28;5080521;28;20055;-81
2023/04/06 11:20:14;;;;;;;12.88;7.15;;;;;;;10.17;35.78;92483.25;5091596;28;20040;-79
2023/04/06 11:22:52;;;;;;;11.73;5.43;;;;;;;10.38;34.38;92483.78;5086457;28;20031;-79
2023/04/06 11:25:19;;;;;;;12.98;7.15;;;;;;;10.19;35.97;92478.50;5080565;28;20055;-78
2023/04/06 11:27:46;;;;;;;15.07;7.82;;;;;;;10.56;37.26;92478.78;5087005;28;20026;-79
2023/04/06 11:30:13;;;;;;;14.55;7.20;;;;;;;11.06;34.49;92478.28;5083944;28;20490;-80
2023/04/06 11:32:43;;;;;;;9.10;4.82;;;;;;;10.99;34.26;92473.41;5081124;28;20508;-80